Hanseatic Scout — V2BM2 — position and weather

sailwx.info

Track history (hours):
 
Tides and Currents Weather Stations Pressure Air Temp Water Temp Dewpoint Dewpoint Depression Visibility Wind Speed Wind Dir Waves Ship Positions

Hanseatic Scout

Last reported at 2018-Jan-26 08:40 UTC. Time now 2018-Apr-27 02:58 UTC.
Position N 54°31' E 018°33'.
Warning: this ship's position is months out of date.

Length 89 m; draft 3.6 m.

Type: Ship. MMSI: 304867000.

Date/timePositionNaut miles runAvg speedWind from/ knotsBaromVisibWave heightAir tempDewpointWater temp
2018-Jan-26 08:40N 54°31' E 018°33'0 0.0
2018-Jan-26 08:30N 54°31' E 018°33'0 0.0
2018-Jan-26 08:01N 54°31' E 018°33'0 0.0
2018-Jan-26 07:30N 54°31' E 018°33'0 0.0
2018-Jan-26 07:00N 54°32' E 018°33'0 0.0
2018-Jan-26 06:30N 54°31' E 018°33'0 0.0
2018-Jan-26 06:00N 54°31' E 018°33'0 0.0
2018-Jan-26 05:31N 54°31' E 018°33'0 0.0
2018-Jan-26 05:00N 54°31' E 018°33'0 0.0
2018-Jan-26 04:30N 54°32' E 018°33'0 0.0
2018-Jan-26 04:00N 54°31' E 018°33'0 0.0
2018-Jan-26 03:31N 54°31' E 018°33'0 0.0
2018-Jan-26 03:00N 54°31' E 018°33'0 0.0
2018-Jan-26 02:30N 54°32' E 018°33'0 0.0
2018-Jan-26 02:00N 54°31' E 018°33'0 0.0
2018-Jan-26 01:30N 54°31' E 018°33'0 0.0
2018-Jan-26 01:01N 54°31' E 018°33'0 0.0
2018-Jan-26 00:30N 54°31' E 018°33'0 0.5
2018-Jan-26 00:00N 54°32' E 018°34'3 6.2
2018-Jan-25 23:30N 54°32' E 018°39'510.9
2018-Jan-25 23:01N 54°33' E 018°48'4 8.0
2018-Jan-25 22:30N 54°36' E 018°52'4 7.5
2018-Jan-25 22:00N 54°39' E 018°56'1 2.7
2018-Jan-25 21:30N 54°38' E 018°56'3 5.7
2018-Jan-25 21:00N 54°35' E 018°54'3 5.7
2018-Jan-25 20:30N 54°33' E 018°51'2 4.3
2018-Jan-25 20:00N 54°32' E 018°48'2 3.3
2018-Jan-25 19:30N 54°30' E 018°46'3 6.2
2018-Jan-25 19:00N 54°28' E 018°42'3 6.6
2018-Jan-25 18:30N 54°25' E 018°39'2 4.5
2018-Jan-25 18:00N 54°23' E 018°40'1 1.1
2018-Jan-25 17:29N 54°23' E 018°40'0 0.0
2018-Jan-25 16:59N 54°23' E 018°40'0 0.0
2018-Jan-25 16:29N 54°23' E 018°40'0 0.0
2018-Jan-25 15:59N 54°23' E 018°40'0 0.0
2018-Jan-25 15:29N 54°23' E 018°40'0 0.0
2018-Jan-25 14:59N 54°23' E 018°40'0 0.0
2018-Jan-25 14:29N 54°23' E 018°40'0 0.0
2018-Jan-25 13:59N 54°23' E 018°40'0 0.0
2018-Jan-25 13:29N 54°23' E 018°40'0 0.0
2018-Jan-25 12:59N 54°23' E 018°40'0 0.0
2018-Jan-25 12:29N 54°23' E 018°40'0 0.0
2018-Jan-25 11:59N 54°23' E 018°40'0 0.0
2018-Jan-25 11:29N 54°23' E 018°40'0 0.0
2018-Jan-25 10:59N 54°23' E 018°40'0 0.0
2018-Jan-25 10:29N 54°23' E 018°40'0 0.0
2018-Jan-25 09:59N 54°23' E 018°40'0 0.0
2018-Jan-25 09:29N 54°23' E 018°40'0 0.0
2018-Jan-25 08:59N 54°23' E 018°40'0 0.0
2018-Jan-25 08:29N 54°23' E 018°40'0 0.0
2018-Jan-25 07:59N 54°23' E 018°40'0 0.0
2018-Jan-25 07:29N 54°23' E 018°40'0 0.0
2018-Jan-25 06:59N 54°23' E 018°40'0 0.0
2018-Jan-25 06:29N 54°23' E 018°40'0 0.0
2018-Jan-25 05:59N 54°23' E 018°40'0 0.0
2018-Jan-25 05:29N 54°23' E 018°40'0 0.0
2018-Jan-25 04:59N 54°23' E 018°40'0 0.0
2018-Jan-25 04:29N 54°23' E 018°40'0 0.0
2018-Jan-25 03:59N 54°23' E 018°40'0 0.0
2018-Jan-25 03:29N 54°23' E 018°40'0 0.0
2018-Jan-25 02:59N 54°23' E 018°40'0 0.0
2018-Jan-25 02:29N 54°23' E 018°40'0 0.0
2018-Jan-25 01:59N 54°23' E 018°40'0 0.0
2018-Jan-25 01:29N 54°23' E 018°40'0 0.0
2018-Jan-25 00:59N 54°23' E 018°40'0 0.0
2018-Jan-25 00:29N 54°23' E 018°40'0 0.0
2018-Jan-24 23:59N 54°23' E 018°40'0 0.0
2018-Jan-24 23:29N 54°23' E 018°40'0 0.0
2018-Jan-24 22:59N 54°23' E 018°40'0 0.0
2018-Jan-24 22:29N 54°23' E 018°40'0 0.0
2018-Jan-24 21:59N 54°23' E 018°40'0 0.0
2018-Jan-24 21:29N 54°23' E 018°40'0 0.0
2018-Jan-24 20:59N 54°23' E 018°40'0 0.0
2018-Jan-24 20:29N 54°23' E 018°40'0 0.0
2018-Jan-24 19:59N 54°23' E 018°40'0 0.0
2018-Jan-24 19:29N 54°23' E 018°40'0 0.0
2018-Jan-24 18:59N 54°23' E 018°40'0 0.0
2018-Jan-24 18:29N 54°23' E 018°40'0 0.0
2018-Jan-24 17:59N 54°23' E 018°40'0 0.0
2018-Jan-24 17:29N 54°23' E 018°40'0 0.0
2018-Jan-24 16:59N 54°23' E 018°40'0 0.0
2018-Jan-24 16:29N 54°23' E 018°40'0 0.0
2018-Jan-24 15:59N 54°23' E 018°40'0 0.0
2018-Jan-24 15:29N 54°23' E 018°40'0 0.0
2018-Jan-24 14:59N 54°23' E 018°40'0 0.0
2018-Jan-24 14:29N 54°23' E 018°40'0 0.0
2018-Jan-24 13:59N 54°23' E 018°40'0 0.0
2018-Jan-24 13:29N 54°23' E 018°40'0 0.0
2018-Jan-24 12:56N 54°23' E 018°40'0 0.0
2018-Jan-24 12:29N 54°23' E 018°40'0 0.0
2018-Jan-24 11:59N 54°23' E 018°40'0 0.0
2018-Jan-24 11:29N 54°23' E 018°40'0 0.0
2018-Jan-24 10:59N 54°23' E 018°40'0 0.0
2018-Jan-24 10:29N 54°23' E 018°40'0 0.0
2018-Jan-24 09:59N 54°23' E 018°40'0 0.0
2018-Jan-24 09:29N 54°23' E 018°40'0 0.0
2018-Jan-24 08:59N 54°23' E 018°40'0 0.0
2018-Jan-24 08:29N 54°23' E 018°40'0 0.0
2018-Jan-24 07:59N 54°23' E 018°40'0 0.0
2018-Jan-24 07:29N 54°23' E 018°40'0 0.0
2018-Jan-24 06:59N 54°23' E 018°40'0 0.0
2018-Jan-24 06:29N 54°23' E 018°40'0 0.1
2018-Jan-24 06:00N 54°23' E 018°40'2 3.1
2018-Jan-24 05:30N 54°24' E 018°40'3 5.8
2018-Jan-24 05:00N 54°27' E 018°41'4 8.7
2018-Jan-24 04:30N 54°31' E 018°45'5 9.1
2018-Jan-24 04:00N 54°34' E 018°50'4 8.5
2018-Jan-24 03:30N 54°38' E 018°54'4 8.2
2018-Jan-24 03:01N 54°41' E 018°57'4 8.2
2018-Jan-24 02:31N 54°45' E 018°59'4 7.5
2018-Jan-24 02:00N 54°48' E 018°54'4 8.4
2018-Jan-24 01:30N 54°51' E 018°48'4 8.8
2018-Jan-24 01:01N 54°53' E 018°42'4 8.0
2018-Jan-24 00:30N 54°56' E 018°36'4 8.1
2018-Jan-24 00:01N 54°55' E 018°29'4 8.2
2018-Jan-23 23:30N 54°55' E 018°22'4 8.2
2018-Jan-23 23:00N 54°55' E 018°15'4 8.2
2018-Jan-23 22:30N 54°54' E 018°08'4 8.1
2018-Jan-23 22:00N 54°54' E 018°01'181 8.2
2018-Jan-22 23:59N 55°10' E 012°47'5 9.9
2018-Jan-22 23:30N 55°12' E 012°39'4 8.5
2018-Jan-22 23:01N 55°17' E 012°37'5 9.2
2018-Jan-22 22:31N 55°21' E 012°38'5 9.5
2018-Jan-22 22:00N 55°26' E 012°40'5 9.3
2018-Jan-22 21:30N 55°30' E 012°42'4 8.6
2018-Jan-22 21:00N 55°35' E 012°42'4 7.6
2018-Jan-22 20:30N 55°38' E 012°41'4 7.9
2018-Jan-22 20:01N 55°42' E 012°41'4 8.7
2018-Jan-22 19:30N 55°47' E 012°41'4 8.4
2018-Jan-22 19:01N 55°51' E 012°40'4 8.3
2018-Jan-22 18:30N 55°55' E 012°38'4 8.2
2018-Jan-22 18:01N 55°59' E 012°37'4 8.1
2018-Jan-22 17:31N 56°03' E 012°38'3 5.9
2018-Jan-22 17:00N 56°05' E 012°35'3 6.7
2018-Jan-22 16:30N 56°07' E 012°30'60 8.8
2018-Jan-22 09:40N 57°01' E 011°41'2 9.3
2018-Jan-22 09:29N 57°02' E 011°40'4 9.2
2018-Jan-22 09:00N 57°07' E 011°38'5 9.1
2018-Jan-22 08:31N 57°11' E 011°35'5 9.0
2018-Jan-22 08:00N 57°15' E 011°32'5 9.3
2018-Jan-22 07:30N 57°20' E 011°29'4 9.1
2018-Jan-22 07:00N 57°24' E 011°26'5 9.0
2018-Jan-22 06:30N 57°28' E 011°21'4 8.4
2018-Jan-22 06:00N 57°31' E 011°16'4 8.9
2018-Jan-22 05:31N 57°33' E 011°10'4 8.7
2018-Jan-22 05:00N 57°35' E 011°02'5 9.0
2018-Jan-22 04:30N 57°37' E 010°54'5 9.4
2018-Jan-22 04:00N 57°39' E 010°46'5 9.5
2018-Jan-22 03:30N 57°40' E 010°38'2 3.1
2018-Jan-22 02:58N 57°41' E 010°36'0 0.0
2018-Jan-22 02:22N 57°41' E 010°36'0 0.0
2018-Jan-22 01:58N 57°41' E 010°36'0 0.0
2018-Jan-22 01:28N 57°41' E 010°36'0 0.0
2018-Jan-22 00:52N 57°41' E 010°36'0 0.6
2018-Jan-22 00:31N 57°41' E 010°36'3 6.3
2018-Jan-22 00:00N 57°43' E 010°41'3 6.8
2018-Jan-21 23:30N 57°46' E 010°44'4 8.4
2018-Jan-21 23:01N 57°47' E 010°37'5 9.8
2018-Jan-21 22:31N 57°47' E 010°27'5 9.5
2018-Jan-21 22:01N 57°47' E 010°19'5 9.6
2018-Jan-21 21:30N 57°48' E 010°09'58 9.8
2018-Jan-21 15:37N 57°51' E 008°22'1 9.6
2018-Jan-21 15:30N 57°51' E 008°20'5 9.3
2018-Jan-21 15:00N 57°51' E 008°11'4 8.7
2018-Jan-21 14:30N 57°52' E 008°03'4 8.0
2018-Jan-21 14:00N 57°53' E 007°55'4 7.3
2018-Jan-21 13:28N 57°53' E 007°48'3 7.0
2018-Jan-21 13:00N 57°54' E 007°42'4 7.5
2018-Jan-21 12:30N 57°54' E 007°35'4 7.9
2018-Jan-21 12:00N 57°54' E 007°28'4 8.0
2018-Jan-21 11:30N 57°55' E 007°20'4 7.9
2018-Jan-21 11:00N 57°54' E 007°13'4 7.6
2018-Jan-21 10:30N 57°54' E 007°06'4 7.1
2018-Jan-21 10:00N 57°55' E 006°59'4 7.0
2018-Jan-21 09:30N 57°56' E 006°53'3 6.9
2018-Jan-21 09:00N 57°57' E 006°46'4 6.8
2018-Jan-21 08:29N 57°58' E 006°40'3 6.8
2018-Jan-21 08:00N 57°59' E 006°35'3 6.8
2018-Jan-21 07:30N 58°01' E 006°29'4 7.7
2018-Jan-21 07:00N 58°02' E 006°22'4 8.3
2018-Jan-21 06:30N 58°04' E 006°15'4 8.7
2018-Jan-21 06:00N 58°07' E 006°09'4 8.6
2018-Jan-21 05:30N 58°10' E 006°02'4 8.4
2018-Jan-21 05:00N 58°13' E 005°57'4 8.4
2018-Jan-21 04:30N 58°16' E 005°51'4 8.0
2018-Jan-21 03:59N 58°19' E 005°46'4 7.4
2018-Jan-21 03:30N 58°21' E 005°41'4 7.1
2018-Jan-21 03:00N 58°24' E 005°37'4 7.3
2018-Jan-21 02:30N 58°27' E 005°32'4 7.8
2018-Jan-21 02:00N 58°30' E 005°27'4 8.5
2018-Jan-21 01:30N 58°33' E 005°23'4 8.5
2018-Jan-21 01:00N 58°37' E 005°20'4 8.7
2018-Jan-21 00:30N 58°41' E 005°15'5 9.6
2018-Jan-21 00:01N 58°45' E 005°10'4 8.9
2018-Jan-20 23:30N 58°49' E 005°06'4 8.9
2018-Jan-20 23:00N 58°53' E 005°02'4 8.6
2018-Jan-20 22:30N 58°56' E 004°58'4 8.4
2018-Jan-20 22:00N 59°00' E 004°54'4 8.4
2018-Jan-20 21:30N 59°04' E 004°50'89 8.3
2018-Jan-20 10:45N 60°32' E 004°20'22 8.5
2018-Jan-20 08:10N 60°54' E 004°16'1 7.3
2018-Jan-20 07:59N 60°55' E 004°15'4 7.4
2018-Jan-20 07:30N 60°59' E 004°15'18 7.7
2018-Jan-20 05:11N 61°17' E 004°17'2 8.3
2018-Jan-20 04:59N 61°18' E 004°18'4 8.4
2018-Jan-20 04:30N 61°22' E 004°19'4 8.6
2018-Jan-20 04:00N 61°26' E 004°20'4 9.0
2018-Jan-20 03:30N 61°31' E 004°21'4 8.4
2018-Jan-20 02:59N 61°35' E 004°22'4 7.9
2018-Jan-20 02:29N 61°39' E 004°23'4 7.5
2018-Jan-20 02:00N 61°43' E 004°25'4 7.6
2018-Jan-20 01:30N 61°46' E 004°28'4 8.2
2018-Jan-20 01:00N 61°50' E 004°32'4 8.2
2018-Jan-20 00:29N 61°54' E 004°35'4 8.1
2018-Jan-20 00:00N 61°58' E 004°38'4 7.6
2018-Jan-19 23:30N 62°01' E 004°41'4 7.6
2018-Jan-19 23:00N 62°05' E 004°44'4 7.8
2018-Jan-19 22:30N 62°08' E 004°47'4 7.7
2018-Jan-19 21:59N 62°12' E 004°51'4 8.1
2018-Jan-19 21:30N 62°15' E 004°55'4 7.9
2018-Jan-19 21:00N 62°18' E 004°60'4 7.7
2018-Jan-19 20:30N 62°21' E 005°05'4 8.4
2018-Jan-19 20:00N 62°24' E 005°11'5 9.2
2018-Jan-19 19:30N 62°28' E 005°18'5 9.2
2018-Jan-19 19:00N 62°31' E 005°24'5 9.2
2018-Jan-19 18:30N 62°35' E 005°31'4 8.5
2018-Jan-19 18:00N 62°38' E 005°37'4 8.6
2018-Jan-19 17:30N 62°41' E 005°44'5 8.9
2018-Jan-19 16:59N 62°44' E 005°51'4 8.9
2018-Jan-19 16:30N 62°47' E 005°57'4 8.7
2018-Jan-19 16:00N 62°51' E 006°03'5 8.8
2018-Jan-19 15:29N 62°54' E 006°10'4 8.9
2018-Jan-19 15:00N 62°57' E 006°17'4 8.7
2018-Jan-19 14:30N 62°60' E 006°24'4 8.3
2018-Jan-19 14:00N 63°02' E 006°32'4 8.3
2018-Jan-19 13:30N 63°05' E 006°39'4 8.8
2018-Jan-19 13:00N 63°08' E 006°45'4 8.4
2018-Jan-19 12:30N 63°11' E 006°52'4 8.5
2018-Jan-19 12:00N 63°14' E 006°59'4 8.2
2018-Jan-19 11:30N 63°16' E 007°06'4 7.9
2018-Jan-19 11:00N 63°19' E 007°12'4 8.1
2018-Jan-19 10:30N 63°23' E 007°17'4 8.1
2018-Jan-19 10:00N 63°26' E 007°23'4 7.8
2018-Jan-19 09:30N 63°29' E 007°28'4 7.4
2018-Jan-19 09:00N 63°32' E 007°33'4 7.5
2018-Jan-19 08:30N 63°35' E 007°39'4 7.5
2018-Jan-19 08:00N 63°38' E 007°44'4 7.9
2018-Jan-19 07:30N 63°41' E 007°49'4 7.4
2018-Jan-19 07:00N 63°44' E 007°54'4 8.0
2018-Jan-19 06:30N 63°47' E 007°59'4 7.7
2018-Jan-19 06:00N 63°50' E 008°05'4 7.7
2018-Jan-19 05:30N 63°53' E 008°10'4 7.6
2018-Jan-19 05:00N 63°56' E 008°15'4 7.4
2018-Jan-19 04:30N 63°59' E 008°20'156 7.9
2018-Jan-18 08:45N 66°15' E 011°24'2 8.2
2018-Jan-18 08:27N 66°17' E 011°27'4 8.2
2018-Jan-18 08:00N 66°20' E 011°31'4 8.0
2018-Jan-18 07:30N 66°24' E 011°34'4 8.1
2018-Jan-18 06:59N 66°28' E 011°35'4 8.3
2018-Jan-18 06:30N 66°32' E 011°34'4 8.4
2018-Jan-18 06:00N 66°36' E 011°34'4 8.2
2018-Jan-18 05:30N 66°40' E 011°35'4 8.4
2018-Jan-18 05:00N 66°44' E 011°35'5 9.0
2018-Jan-18 04:30N 66°49' E 011°36'  
Track history (hours):
 
Tides and Currents Weather Stations Pressure Air Temp Water Temp Dewpoint Dewpoint Depression Visibility Wind Speed Wind Dir Waves Ship Positions

Hanseatic Scout

Last reported at 2018-Jan-26 08:40 UTC. Time now 2018-Apr-27 02:58 UTC.
Position N 54°31' E 018°33'.
Warning: this ship's position is months out of date.

Length 89 m; draft 3.6 m.

Type: Ship. MMSI: 304867000.

Date/timePositionNaut miles runAvg speedWind from/ knotsBaromVisibWave heightAir tempDewpointWater temp
2018-Jan-26 08:40N 54°31' E 018°33'0 0.0
2018-Jan-26 08:30N 54°31' E 018°33'0 0.0
2018-Jan-26 08:01N 54°31' E 018°33'0 0.0
2018-Jan-26 07:30N 54°31' E 018°33'0 0.0
2018-Jan-26 07:00N 54°32' E 018°33'0 0.0
2018-Jan-26 06:30N 54°31' E 018°33'0 0.0
2018-Jan-26 06:00N 54°31' E 018°33'0 0.0
2018-Jan-26 05:31N 54°31' E 018°33'0 0.0
2018-Jan-26 05:00N 54°31' E 018°33'0 0.0
2018-Jan-26 04:30N 54°32' E 018°33'0 0.0
2018-Jan-26 04:00N 54°31' E 018°33'0 0.0
2018-Jan-26 03:31N 54°31' E 018°33'0 0.0
2018-Jan-26 03:00N 54°31' E 018°33'0 0.0
2018-Jan-26 02:30N 54°32' E 018°33'0 0.0
2018-Jan-26 02:00N 54°31' E 018°33'0 0.0
2018-Jan-26 01:30N 54°31' E 018°33'0 0.0
2018-Jan-26 01:01N 54°31' E 018°33'0 0.0
2018-Jan-26 00:30N 54°31' E 018°33'0 0.5
2018-Jan-26 00:00N 54°32' E 018°34'3 6.2
2018-Jan-25 23:30N 54°32' E 018°39'510.9
2018-Jan-25 23:01N 54°33' E 018°48'4 8.0
2018-Jan-25 22:30N 54°36' E 018°52'4 7.5
2018-Jan-25 22:00N 54°39' E 018°56'1 2.7
2018-Jan-25 21:30N 54°38' E 018°56'3 5.7
2018-Jan-25 21:00N 54°35' E 018°54'3 5.7
2018-Jan-25 20:30N 54°33' E 018°51'2 4.3
2018-Jan-25 20:00N 54°32' E 018°48'2 3.3
2018-Jan-25 19:30N 54°30' E 018°46'3 6.2
2018-Jan-25 19:00N 54°28' E 018°42'3 6.6
2018-Jan-25 18:30N 54°25' E 018°39'2 4.5
2018-Jan-25 18:00N 54°23' E 018°40'1 1.1
2018-Jan-25 17:29N 54°23' E 018°40'0 0.0
2018-Jan-25 16:59N 54°23' E 018°40'0 0.0
2018-Jan-25 16:29N 54°23' E 018°40'0 0.0
2018-Jan-25 15:59N 54°23' E 018°40'0 0.0
2018-Jan-25 15:29N 54°23' E 018°40'0 0.0
2018-Jan-25 14:59N 54°23' E 018°40'0 0.0
2018-Jan-25 14:29N 54°23' E 018°40'0 0.0
2018-Jan-25 13:59N 54°23' E 018°40'0 0.0
2018-Jan-25 13:29N 54°23' E 018°40'0 0.0
2018-Jan-25 12:59N 54°23' E 018°40'0 0.0
2018-Jan-25 12:29N 54°23' E 018°40'0 0.0
2018-Jan-25 11:59N 54°23' E 018°40'0 0.0
2018-Jan-25 11:29N 54°23' E 018°40'0 0.0
2018-Jan-25 10:59N 54°23' E 018°40'0 0.0
2018-Jan-25 10:29N 54°23' E 018°40'0 0.0
2018-Jan-25 09:59N 54°23' E 018°40'0 0.0
2018-Jan-25 09:29N 54°23' E 018°40'0 0.0
2018-Jan-25 08:59N 54°23' E 018°40'0 0.0
2018-Jan-25 08:29N 54°23' E 018°40'0 0.0
2018-Jan-25 07:59N 54°23' E 018°40'0 0.0
2018-Jan-25 07:29N 54°23' E 018°40'0 0.0
2018-Jan-25 06:59N 54°23' E 018°40'0 0.0
2018-Jan-25 06:29N 54°23' E 018°40'0 0.0
2018-Jan-25 05:59N 54°23' E 018°40'0 0.0
2018-Jan-25 05:29N 54°23' E 018°40'0 0.0
2018-Jan-25 04:59N 54°23' E 018°40'0 0.0
2018-Jan-25 04:29N 54°23' E 018°40'0 0.0
2018-Jan-25 03:59N 54°23' E 018°40'0 0.0
2018-Jan-25 03:29N 54°23' E 018°40'0 0.0
2018-Jan-25 02:59N 54°23' E 018°40'0 0.0
2018-Jan-25 02:29N 54°23' E 018°40'0 0.0
2018-Jan-25 01:59N 54°23' E 018°40'0 0.0
2018-Jan-25 01:29N 54°23' E 018°40'0 0.0
2018-Jan-25 00:59N 54°23' E 018°40'0 0.0
2018-Jan-25 00:29N 54°23' E 018°40'0 0.0
2018-Jan-24 23:59N 54°23' E 018°40'0 0.0
2018-Jan-24 23:29N 54°23' E 018°40'0 0.0
2018-Jan-24 22:59N 54°23' E 018°40'0 0.0
2018-Jan-24 22:29N 54°23' E 018°40'0 0.0
2018-Jan-24 21:59N 54°23' E 018°40'0 0.0
2018-Jan-24 21:29N 54°23' E 018°40'0 0.0
2018-Jan-24 20:59N 54°23' E 018°40'0 0.0
2018-Jan-24 20:29N 54°23' E 018°40'0 0.0
2018-Jan-24 19:59N 54°23' E 018°40'0 0.0
2018-Jan-24 19:29N 54°23' E 018°40'0 0.0
2018-Jan-24 18:59N 54°23' E 018°40'0 0.0
2018-Jan-24 18:29N 54°23' E 018°40'0 0.0
2018-Jan-24 17:59N 54°23' E 018°40'0 0.0
2018-Jan-24 17:29N 54°23' E 018°40'0 0.0
2018-Jan-24 16:59N 54°23' E 018°40'0 0.0
2018-Jan-24 16:29N 54°23' E 018°40'0 0.0
2018-Jan-24 15:59N 54°23' E 018°40'0 0.0
2018-Jan-24 15:29N 54°23' E 018°40'0 0.0
2018-Jan-24 14:59N 54°23' E 018°40'0 0.0
2018-Jan-24 14:29N 54°23' E 018°40'0 0.0
2018-Jan-24 13:59N 54°23' E 018°40'0 0.0
2018-Jan-24 13:29N 54°23' E 018°40'0 0.0
2018-Jan-24 12:56N 54°23' E 018°40'0 0.0
2018-Jan-24 12:29N 54°23' E 018°40'0 0.0
2018-Jan-24 11:59N 54°23' E 018°40'0 0.0
2018-Jan-24 11:29N 54°23' E 018°40'0 0.0
2018-Jan-24 10:59N 54°23' E 018°40'0 0.0
2018-Jan-24 10:29N 54°23' E 018°40'0 0.0
2018-Jan-24 09:59N 54°23' E 018°40'0 0.0
2018-Jan-24 09:29N 54°23' E 018°40'0 0.0
2018-Jan-24 08:59N 54°23' E 018°40'0 0.0
2018-Jan-24 08:29N 54°23' E 018°40'0 0.0
2018-Jan-24 07:59N 54°23' E 018°40'0 0.0
2018-Jan-24 07:29N 54°23' E 018°40'0 0.0
2018-Jan-24 06:59N 54°23' E 018°40'0 0.0
2018-Jan-24 06:29N 54°23' E 018°40'0 0.1
2018-Jan-24 06:00N 54°23' E 018°40'2 3.1
2018-Jan-24 05:30N 54°24' E 018°40'3 5.8
2018-Jan-24 05:00N 54°27' E 018°41'4 8.7
2018-Jan-24 04:30N 54°31' E 018°45'5 9.1
2018-Jan-24 04:00N 54°34' E 018°50'4 8.5
2018-Jan-24 03:30N 54°38' E 018°54'4 8.2
2018-Jan-24 03:01N 54°41' E 018°57'4 8.2
2018-Jan-24 02:31N 54°45' E 018°59'4 7.5
2018-Jan-24 02:00N 54°48' E 018°54'4 8.4
2018-Jan-24 01:30N 54°51' E 018°48'4 8.8
2018-Jan-24 01:01N 54°53' E 018°42'4 8.0
2018-Jan-24 00:30N 54°56' E 018°36'4 8.1
2018-Jan-24 00:01N 54°55' E 018°29'4 8.2
2018-Jan-23 23:30N 54°55' E 018°22'4 8.2
2018-Jan-23 23:00N 54°55' E 018°15'4 8.2
2018-Jan-23 22:30N 54°54' E 018°08'4 8.1
2018-Jan-23 22:00N 54°54' E 018°01'181 8.2
2018-Jan-22 23:59N 55°10' E 012°47'5 9.9
2018-Jan-22 23:30N 55°12' E 012°39'4 8.5
2018-Jan-22 23:01N 55°17' E 012°37'5 9.2
2018-Jan-22 22:31N 55°21' E 012°38'5 9.5
2018-Jan-22 22:00N 55°26' E 012°40'5 9.3
2018-Jan-22 21:30N 55°30' E 012°42'4 8.6
2018-Jan-22 21:00N 55°35' E 012°42'4 7.6
2018-Jan-22 20:30N 55°38' E 012°41'4 7.9
2018-Jan-22 20:01N 55°42' E 012°41'4 8.7
2018-Jan-22 19:30N 55°47' E 012°41'4 8.4
2018-Jan-22 19:01N 55°51' E 012°40'4 8.3
2018-Jan-22 18:30N 55°55' E 012°38'4 8.2
2018-Jan-22 18:01N 55°59' E 012°37'4 8.1
2018-Jan-22 17:31N 56°03' E 012°38'3 5.9
2018-Jan-22 17:00N 56°05' E 012°35'3 6.7
2018-Jan-22 16:30N 56°07' E 012°30'60 8.8
2018-Jan-22 09:40N 57°01' E 011°41'2 9.3
2018-Jan-22 09:29N 57°02' E 011°40'4 9.2
2018-Jan-22 09:00N 57°07' E 011°38'5 9.1
2018-Jan-22 08:31N 57°11' E 011°35'5 9.0
2018-Jan-22 08:00N 57°15' E 011°32'5 9.3
2018-Jan-22 07:30N 57°20' E 011°29'4 9.1
2018-Jan-22 07:00N 57°24' E 011°26'5 9.0
2018-Jan-22 06:30N 57°28' E 011°21'4 8.4
2018-Jan-22 06:00N 57°31' E 011°16'4 8.9
2018-Jan-22 05:31N 57°33' E 011°10'4 8.7
2018-Jan-22 05:00N 57°35' E 011°02'5 9.0
2018-Jan-22 04:30N 57°37' E 010°54'5 9.4
2018-Jan-22 04:00N 57°39' E 010°46'5 9.5
2018-Jan-22 03:30N 57°40' E 010°38'2 3.1
2018-Jan-22 02:58N 57°41' E 010°36'0 0.0
2018-Jan-22 02:22N 57°41' E 010°36'0 0.0
2018-Jan-22 01:58N 57°41' E 010°36'0 0.0
2018-Jan-22 01:28N 57°41' E 010°36'0 0.0
2018-Jan-22 00:52N 57°41' E 010°36'0 0.6
2018-Jan-22 00:31N 57°41' E 010°36'3 6.3
2018-Jan-22 00:00N 57°43' E 010°41'3 6.8
2018-Jan-21 23:30N 57°46' E 010°44'4 8.4
2018-Jan-21 23:01N 57°47' E 010°37'5 9.8
2018-Jan-21 22:31N 57°47' E 010°27'5 9.5
2018-Jan-21 22:01N 57°47' E 010°19'5 9.6
2018-Jan-21 21:30N 57°48' E 010°09'58 9.8
2018-Jan-21 15:37N 57°51' E 008°22'1 9.6
2018-Jan-21 15:30N 57°51' E 008°20'5 9.3
2018-Jan-21 15:00N 57°51' E 008°11'4 8.7
2018-Jan-21 14:30N 57°52' E 008°03'4 8.0
2018-Jan-21 14:00N 57°53' E 007°55'4 7.3
2018-Jan-21 13:28N 57°53' E 007°48'3 7.0
2018-Jan-21 13:00N 57°54' E 007°42'4 7.5
2018-Jan-21 12:30N 57°54' E 007°35'4 7.9
2018-Jan-21 12:00N 57°54' E 007°28'4 8.0
2018-Jan-21 11:30N 57°55' E 007°20'4 7.9
2018-Jan-21 11:00N 57°54' E 007°13'4 7.6
2018-Jan-21 10:30N 57°54' E 007°06'4 7.1
2018-Jan-21 10:00N 57°55' E 006°59'4 7.0
2018-Jan-21 09:30N 57°56' E 006°53'3 6.9
2018-Jan-21 09:00N 57°57' E 006°46'4 6.8
2018-Jan-21 08:29N 57°58' E 006°40'3 6.8
2018-Jan-21 08:00N 57°59' E 006°35'3 6.8
2018-Jan-21 07:30N 58°01' E 006°29'4 7.7
2018-Jan-21 07:00N 58°02' E 006°22'4 8.3
2018-Jan-21 06:30N 58°04' E 006°15'4 8.7
2018-Jan-21 06:00N 58°07' E 006°09'4 8.6
2018-Jan-21 05:30N 58°10' E 006°02'4 8.4
2018-Jan-21 05:00N 58°13' E 005°57'4 8.4
2018-Jan-21 04:30N 58°16' E 005°51'4 8.0
2018-Jan-21 03:59N 58°19' E 005°46'4 7.4
2018-Jan-21 03:30N 58°21' E 005°41'4 7.1
2018-Jan-21 03:00N 58°24' E 005°37'4 7.3
2018-Jan-21 02:30N 58°27' E 005°32'4 7.8
2018-Jan-21 02:00N 58°30' E 005°27'4 8.5
2018-Jan-21 01:30N 58°33' E 005°23'4 8.5
2018-Jan-21 01:00N 58°37' E 005°20'4 8.7
2018-Jan-21 00:30N 58°41' E 005°15'5 9.6
2018-Jan-21 00:01N 58°45' E 005°10'4 8.9
2018-Jan-20 23:30N 58°49' E 005°06'4 8.9
2018-Jan-20 23:00N 58°53' E 005°02'4 8.6
2018-Jan-20 22:30N 58°56' E 004°58'4 8.4
2018-Jan-20 22:00N 59°00' E 004°54'4 8.4
2018-Jan-20 21:30N 59°04' E 004°50'89 8.3
2018-Jan-20 10:45N 60°32' E 004°20'22 8.5
2018-Jan-20 08:10N 60°54' E 004°16'1 7.3
2018-Jan-20 07:59N 60°55' E 004°15'4 7.4
2018-Jan-20 07:30N 60°59' E 004°15'18 7.7
2018-Jan-20 05:11N 61°17' E 004°17'2 8.3
2018-Jan-20 04:59N 61°18' E 004°18'4 8.4
2018-Jan-20 04:30N 61°22' E 004°19'4 8.6
2018-Jan-20 04:00N 61°26' E 004°20'4 9.0
2018-Jan-20 03:30N 61°31' E 004°21'4 8.4
2018-Jan-20 02:59N 61°35' E 004°22'4 7.9
2018-Jan-20 02:29N 61°39' E 004°23'4 7.5
2018-Jan-20 02:00N 61°43' E 004°25'4 7.6
2018-Jan-20 01:30N 61°46' E 004°28'4 8.2
2018-Jan-20 01:00N 61°50' E 004°32'4 8.2
2018-Jan-20 00:29N 61°54' E 004°35'4 8.1
2018-Jan-20 00:00N 61°58' E 004°38'4 7.6
2018-Jan-19 23:30N 62°01' E 004°41'4 7.6
2018-Jan-19 23:00N 62°05' E 004°44'4 7.8
2018-Jan-19 22:30N 62°08' E 004°47'4 7.7
2018-Jan-19 21:59N 62°12' E 004°51'4 8.1
2018-Jan-19 21:30N 62°15' E 004°55'4 7.9
2018-Jan-19 21:00N 62°18' E 004°60'4 7.7
2018-Jan-19 20:30N 62°21' E 005°05'4 8.4
2018-Jan-19 20:00N 62°24' E 005°11'5 9.2
2018-Jan-19 19:30N 62°28' E 005°18'5 9.2
2018-Jan-19 19:00N 62°31' E 005°24'5 9.2
2018-Jan-19 18:30N 62°35' E 005°31'4 8.5
2018-Jan-19 18:00N 62°38' E 005°37'4 8.6
2018-Jan-19 17:30N 62°41' E 005°44'5 8.9
2018-Jan-19 16:59N 62°44' E 005°51'4 8.9
2018-Jan-19 16:30N 62°47' E 005°57'4 8.7
2018-Jan-19 16:00N 62°51' E 006°03'5 8.8
2018-Jan-19 15:29N 62°54' E 006°10'4 8.9
2018-Jan-19 15:00N 62°57' E 006°17'4 8.7
2018-Jan-19 14:30N 62°60' E 006°24'4 8.3
2018-Jan-19 14:00N 63°02' E 006°32'4 8.3
2018-Jan-19 13:30N 63°05' E 006°39'4 8.8
2018-Jan-19 13:00N 63°08' E 006°45'4 8.4
2018-Jan-19 12:30N 63°11' E 006°52'4 8.5
2018-Jan-19 12:00N 63°14' E 006°59'4 8.2
2018-Jan-19 11:30N 63°16' E 007°06'4 7.9
2018-Jan-19 11:00N 63°19' E 007°12'4 8.1
2018-Jan-19 10:30N 63°23' E 007°17'4 8.1
2018-Jan-19 10:00N 63°26' E 007°23'4 7.8
2018-Jan-19 09:30N 63°29' E 007°28'4 7.4
2018-Jan-19 09:00N 63°32' E 007°33'4 7.5
2018-Jan-19 08:30N 63°35' E 007°39'4 7.5
2018-Jan-19 08:00N 63°38' E 007°44'4 7.9
2018-Jan-19 07:30N 63°41' E 007°49'4 7.4
2018-Jan-19 07:00N 63°44' E 007°54'4 8.0
2018-Jan-19 06:30N 63°47' E 007°59'4 7.7
2018-Jan-19 06:00N 63°50' E 008°05'4 7.7
2018-Jan-19 05:30N 63°53' E 008°10'4 7.6
2018-Jan-19 05:00N 63°56' E 008°15'4 7.4
2018-Jan-19 04:30N 63°59' E 008°20'156 7.9
2018-Jan-18 08:45N 66°15' E 011°24'2 8.2
2018-Jan-18 08:27N 66°17' E 011°27'4 8.2
2018-Jan-18 08:00N 66°20' E 011°31'4 8.0
2018-Jan-18 07:30N 66°24' E 011°34'4 8.1
2018-Jan-18 06:59N 66°28' E 011°35'4 8.3
2018-Jan-18 06:30N 66°32' E 011°34'4 8.4
2018-Jan-18 06:00N 66°36' E 011°34'4 8.2
2018-Jan-18 05:30N 66°40' E 011°35'4 8.4
2018-Jan-18 05:00N 66°44' E 011°35'5 9.0
2018-Jan-18 04:30N 66°49' E 011°36'  

Dump ship's entire track history